createdAt,value
2019-03-03T00:01:56.953Z,18.50
2019-03-03T00:04:29.187Z,18.40
2019-03-03T00:07:01.319Z,20.13
2019-03-03T00:09:33.430Z,19.40
2019-03-03T00:12:05.725Z,18.97
2019-03-03T00:14:37.947Z,19.23
2019-03-03T00:17:10.315Z,17.87
2019-03-03T00:19:42.780Z,17.90
2019-03-03T00:22:15.295Z,19.30
2019-03-03T00:24:47.768Z,18.27
2019-03-03T00:27:20.083Z,17.83
2019-03-03T00:29:52.582Z,17.50
2019-03-03T00:32:24.760Z,18.57
2019-03-03T00:34:56.879Z,17.87
2019-03-03T00:37:42.270Z,18.10
2019-03-03T00:40:33.177Z,19.07
2019-03-03T00:43:23.685Z,19.20
2019-03-03T00:46:05.681Z,18.73
2019-03-03T00:48:45.549Z,18.17
2019-03-03T00:51:33.026Z,19.03
2019-03-03T00:54:19.338Z,18.67
2019-03-03T00:57:00.884Z,18.40
2019-03-03T00:59:55.465Z,18.63
2019-03-03T01:02:47.574Z,18.27
2019-03-03T01:05:33.515Z,19.10
2019-03-03T01:08:28.329Z,18.37
2019-03-03T01:11:16.180Z,19.47
2019-03-03T01:14:06.680Z,19.70
2019-03-03T01:16:46.273Z,19.60
2019-03-03T01:19:43.925Z,18.67
2019-03-03T01:22:41.889Z,19.70
2019-03-03T01:25:14.100Z,20.77
2019-03-03T01:27:46.612Z,20.53
2019-03-03T01:30:19.201Z,20.07
2019-03-03T01:32:51.488Z,20.30
2019-03-03T01:35:24.001Z,22.27
2019-03-03T01:37:56.240Z,20.70
2019-03-03T01:40:28.900Z,20.63
2019-03-03T01:43:01.077Z,21.13
2019-03-03T01:45:33.280Z,22.27
2019-03-03T01:48:05.686Z,20.87
2019-03-03T01:50:37.921Z,22.20
2019-03-03T01:53:10.145Z,21.93
2019-03-03T01:55:42.391Z,22.63
2019-03-03T01:58:14.820Z,20.53
2019-03-03T02:00:47.204Z,21.60
2019-03-03T02:03:19.757Z,21.17
2019-03-03T02:05:52.328Z,21.10
2019-03-03T02:08:24.414Z,20.47
2019-03-03T02:10:56.733Z,21.90
2019-03-03T02:13:29.016Z,21.80
2019-03-03T02:16:02.385Z,22.60
2019-03-03T02:18:34.580Z,21.30
2019-03-03T02:21:07.008Z,21.97
2019-03-03T02:23:39.242Z,22.20
2019-03-03T02:26:11.790Z,22.50
2019-03-03T02:28:43.993Z,23.90
2019-03-03T02:31:16.234Z,23.17
2019-03-03T02:33:48.617Z,22.27
2019-03-03T02:36:21.086Z,22.90
2019-03-03T02:38:53.691Z,23.43
2019-03-03T02:41:25.938Z,22.67
2019-03-03T02:43:58.276Z,23.17
2019-03-03T02:46:30.513Z,24.07
2019-03-03T02:49:02.715Z,22.97
2019-03-03T02:51:34.935Z,24.23
2019-03-03T02:54:07.559Z,24.00
2019-03-03T02:56:39.741Z,24.93
2019-03-03T02:59:11.977Z,23.43
2019-03-03T03:01:52.333Z,24.23
2019-03-03T03:04:25.860Z,25.67
2019-03-03T03:07:23.429Z,22.77
2019-03-03T03:10:21.075Z,23.60
2019-03-03T03:13:15.624Z,24.00
2019-03-03T03:15:59.081Z,23.60
2019-03-03T03:18:39.922Z,25.47
2019-03-03T03:21:28.238Z,25.57
2019-03-03T03:24:10.316Z,24.13
2019-03-03T03:26:52.321Z,25.00
2019-03-03T03:29:39.795Z,24.27
2019-03-03T03:32:23.780Z,24.70
2019-03-03T03:35:06.990Z,22.57
2019-03-03T03:37:51.873Z,23.37
2019-03-03T03:40:32.273Z,23.23
2019-03-03T03:43:30.622Z,25.20
2019-03-03T03:46:28.368Z,22.20
2019-03-03T03:49:18.876Z,23.83
2019-03-03T03:52:03.144Z,24.13
2019-03-03T03:54:43.481Z,23.57
2019-03-03T03:57:28.658Z,23.37
2019-03-03T04:00:20.931Z,23.00
2019-03-03T04:03:03.199Z,22.30
2019-03-03T04:06:00.851Z,23.50
2019-03-03T04:08:51.163Z,23.03
2019-03-03T04:11:42.979Z,22.43
2019-03-03T04:14:34.822Z,21.63
2019-03-03T04:17:30.033Z,22.17
2019-03-03T04:20:20.432Z,22.63
2019-03-03T04:23:24.323Z,20.43
2019-03-03T04:26:08.266Z,21.20
2019-03-03T04:28:56.415Z,21.33
2019-03-03T04:31:34.686Z,20.43
2019-03-03T04:34:17.470Z,20.57
2019-03-03T04:37:09.475Z,20.03
2019-03-03T04:39:57.512Z,20.70
2019-03-03T04:42:48.164Z,20.10
2019-03-03T04:45:34.066Z,20.80
2019-03-03T04:48:21.332Z,18.20
2019-03-03T04:51:12.766Z,20.43
2019-03-03T04:54:10.722Z,19.63
2019-03-03T04:56:55.123Z,19.90
2019-03-03T04:59:49.886Z,19.77
2019-03-03T05:02:29.836Z,19.10
2019-03-03T05:05:12.848Z,19.37
2019-03-03T05:08:07.399Z,20.00
2019-03-03T05:10:51.048Z,18.30
2019-03-03T05:13:27.444Z,18.73
2019-03-03T05:16:18.017Z,20.40
2019-03-03T05:19:05.693Z,18.43
2019-03-03T05:21:38.085Z,18.67
2019-03-03T05:24:10.283Z,17.93
2019-03-03T05:26:42.523Z,18.03
2019-03-03T05:29:14.644Z,18.40
2019-03-03T05:31:47.432Z,17.13
2019-03-03T05:34:19.610Z,16.67
2019-03-03T05:36:51.835Z,15.97
2019-03-03T05:39:24.131Z,15.53
2019-03-03T05:41:56.241Z,17.50
2019-03-03T05:44:28.604Z,15.43
2019-03-03T05:47:01.068Z,15.17
2019-03-03T05:49:33.141Z,16.00
2019-03-03T05:52:05.554Z,14.70
2019-03-03T05:54:38.340Z,14.10
2019-03-03T05:57:11.021Z,14.47
2019-03-03T05:59:43.814Z,13.97
2019-03-03T06:02:16.181Z,13.10
2019-03-03T06:04:48.438Z,13.20
2019-03-03T06:07:21.048Z,14.10
2019-03-03T06:09:53.316Z,13.23
2019-03-03T06:12:25.745Z,12.70
2019-03-03T06:14:58.355Z,12.03
2019-03-03T06:17:30.536Z,13.03
2019-03-03T06:20:03.192Z,12.80
2019-03-03T06:22:35.285Z,12.37
2019-03-03T06:25:08.026Z,11.93
2019-03-03T06:27:40.233Z,12.63
2019-03-03T06:30:13.297Z,13.00
2019-03-03T06:32:45.382Z,12.37
2019-03-03T06:35:17.776Z,11.27
2019-03-03T06:37:50.195Z,11.57
2019-03-03T06:40:22.696Z,11.40
2019-03-03T06:42:54.774Z,10.60
2019-03-03T06:45:27.321Z,9.97
2019-03-03T06:47:59.412Z,10.13
2019-03-03T06:50:31.921Z,10.30
2019-03-03T06:53:04.012Z,9.67
2019-03-03T06:55:36.129Z,9.33
2019-03-03T06:58:08.622Z,8.87
2019-03-03T07:00:41.026Z,9.57
2019-03-03T07:03:13.161Z,8.67
2019-03-03T07:05:45.671Z,8.40
2019-03-03T07:08:17.910Z,8.47
2019-03-03T07:10:50.040Z,7.83
2019-03-03T07:13:22.681Z,8.27
2019-03-03T07:15:54.845Z,7.40
2019-03-03T07:18:27.078Z,7.33
2019-03-03T07:20:59.290Z,7.57
2019-03-03T07:23:31.458Z,7.30
2019-03-03T07:26:04.034Z,7.10
2019-03-03T07:28:36.295Z,6.57
2019-03-03T07:31:08.782Z,6.83
2019-03-03T07:33:44.472Z,6.40
2019-03-03T07:36:16.745Z,6.00
2019-03-03T07:38:49.381Z,6.57
2019-03-03T07:41:21.665Z,6.63
2019-03-03T07:43:53.940Z,5.90
2019-03-03T07:46:26.205Z,5.77
2019-03-03T07:48:58.567Z,5.80
2019-03-03T07:51:30.956Z,5.80
2019-03-03T07:54:03.208Z,6.13
2019-03-03T07:56:35.409Z,5.87
2019-03-03T07:59:08.041Z,5.80
2019-03-03T08:01:40.924Z,6.10
2019-03-03T08:04:13.153Z,5.70
2019-03-03T08:06:45.380Z,5.43
2019-03-03T08:09:17.809Z,5.67
2019-03-03T08:11:50.028Z,5.90
2019-03-03T08:14:22.637Z,5.73
2019-03-03T08:16:54.749Z,5.17
2019-03-03T08:19:28.436Z,5.13
2019-03-03T08:22:00.690Z,5.27
2019-03-03T08:24:33.308Z,5.30
2019-03-03T08:27:05.578Z,5.03
2019-03-03T08:29:37.958Z,5.43
2019-03-03T08:32:10.324Z,5.60
2019-03-03T08:34:42.477Z,5.40
2019-03-03T08:37:14.737Z,5.17
2019-03-03T08:39:46.927Z,5.03
2019-03-03T08:42:42.856Z,4.93
2019-03-03T08:45:24.204Z,4.20
2019-03-03T08:48:16.070Z,4.50
2019-03-03T08:50:53.101Z,5.17
2019-03-03T08:53:33.636Z,5.13
2019-03-03T08:56:22.176Z,5.00
2019-03-03T08:59:22.867Z,5.23
2019-03-03T09:02:15.568Z,5.10
2019-03-03T09:05:10.328Z,5.20
2019-03-03T09:07:50.158Z,4.40
2019-03-03T09:10:31.159Z,5.10
2019-03-03T09:13:08.745Z,5.30
2019-03-03T09:15:59.513Z,5.13
2019-03-03T09:18:49.739Z,4.87
2019-03-03T09:21:40.285Z,4.93
2019-03-03T09:24:32.942Z,5.20
2019-03-03T09:27:23.125Z,5.27
2019-03-03T09:30:17.660Z,5.00
2019-03-03T09:33:17.019Z,5.37
2019-03-03T09:35:57.050Z,5.50
2019-03-03T09:38:43.192Z,5.07
2019-03-03T09:41:41.148Z,5.00
2019-03-03T09:44:31.717Z,5.60
2019-03-03T09:47:22.262Z,5.97
2019-03-03T09:50:23.215Z,4.93
2019-03-03T09:53:15.079Z,5.43
2019-03-03T09:56:15.959Z,5.33
2019-03-03T09:59:13.595Z,5.00
2019-03-03T10:02:04.015Z,5.20
2019-03-03T10:04:58.034Z,5.60
2019-03-03T10:07:46.989Z,4.87
2019-03-03T10:10:27.290Z,6.20
2019-03-03T10:13:05.716Z,4.87
2019-03-03T10:15:46.953Z,4.67
2019-03-03T10:18:47.848Z,5.50
2019-03-03T10:21:40.101Z,5.17
2019-03-03T10:24:19.040Z,5.17
2019-03-03T10:27:09.653Z,5.33
2019-03-03T10:30:04.245Z,4.80
2019-03-03T10:33:02.060Z,5.23
2019-03-03T10:35:56.613Z,5.60
2019-03-03T10:38:36.445Z,5.17
2019-03-03T10:41:29.811Z,6.00
2019-03-03T10:44:20.103Z,5.53
2019-03-03T10:47:14.876Z,5.80
2019-03-03T10:50:24.977Z,5.57
2019-03-03T10:53:04.233Z,6.07
2019-03-03T10:55:59.114Z,5.20
2019-03-03T10:58:51.331Z,5.20
2019-03-03T11:01:33.341Z,5.13
2019-03-03T11:04:25.300Z,6.10
2019-03-03T11:07:21.058Z,4.83
2019-03-03T11:10:18.926Z,5.50
2019-03-03T11:13:02.556Z,5.40
2019-03-03T11:15:53.357Z,5.73
2019-03-03T11:18:45.321Z,5.37
2019-03-03T11:21:27.589Z,5.03
2019-03-03T11:24:34.677Z,5.03
2019-03-03T11:27:42.551Z,4.67
2019-03-03T11:30:47.042Z,4.77
2019-03-03T11:33:45.834Z,5.10
2019-03-03T11:36:36.913Z,4.80
2019-03-03T11:39:26.558Z,4.57
2019-03-03T11:42:15.985Z,5.07
2019-03-03T11:45:08.223Z,4.20
2019-03-03T11:48:04.130Z,4.63
2019-03-03T11:51:01.117Z,5.93
2019-03-03T11:54:02.235Z,4.57
2019-03-03T11:57:06.880Z,3.83
2019-03-03T12:00:02.098Z,4.73
2019-03-03T12:03:09.997Z,4.77
2019-03-03T12:06:08.253Z,5.10
2019-03-03T12:09:12.789Z,4.77
2019-03-03T12:12:24.305Z,4.63
2019-03-03T12:15:13.717Z,4.83
2019-03-03T12:18:05.589Z,5.37
2019-03-03T12:20:57.681Z,5.03
2019-03-03T12:24:05.560Z,4.83
2019-03-03T12:27:12.896Z,5.37
2019-03-03T12:30:01.617Z,5.23
2019-03-03T12:33:13.264Z,5.57
2019-03-03T12:36:17.976Z,5.53
2019-03-03T12:38:59.869Z,5.70
2019-03-03T12:41:52.307Z,5.23
2019-03-03T12:44:35.634Z,6.10
2019-03-03T12:50:34.427Z,5.00
2019-03-03T12:53:26.420Z,5.73
2019-03-03T12:56:31.299Z,5.60
2019-03-03T12:59:36.227Z,5.67
2019-03-03T13:02:47.224Z,5.87
2019-03-03T13:05:51.527Z,5.73
2019-03-03T13:08:59.567Z,5.47
2019-03-03T13:12:02.809Z,6.00
2019-03-03T13:15:07.812Z,5.47
2019-03-03T13:21:13.472Z,5.50
2019-03-03T13:24:05.574Z,6.00
2019-03-03T13:27:04.787Z,6.10
2019-03-03T13:30:05.250Z,6.43
2019-03-03T13:32:57.417Z,6.17
2019-03-03T13:36:07.916Z,6.13
2019-03-03T13:39:12.943Z,6.97
2019-03-03T13:42:05.587Z,5.60
2019-03-03T13:44:38.206Z,5.87
2019-03-03T13:47:30.204Z,5.60
2019-03-03T13:50:15.726Z,5.43
2019-03-03T13:53:00.400Z,5.40
2019-03-03T13:58:38.914Z,5.03
2019-03-03T14:01:11.386Z,5.87
2019-03-03T14:03:43.692Z,5.73
2019-03-03T14:06:29.381Z,6.43
2019-03-03T14:09:01.990Z,5.70
2019-03-03T14:11:47.324Z,14.27
2019-03-03T14:14:32.169Z,5.80
2019-03-03T14:17:17.714Z,4.50
2019-03-03T14:20:02.536Z,4.37
2019-03-03T14:22:35.571Z,4.00
2019-03-03T14:25:27.415Z,4.57
2019-03-03T14:28:13.450Z,6.10
2019-03-03T14:30:57.655Z,4.87
2019-03-03T14:33:59.604Z,3.90
2019-03-03T14:36:44.739Z,4.30
2019-03-03T14:39:29.794Z,4.10
2019-03-03T14:42:14.957Z,4.40
2019-03-03T14:44:47.338Z,4.40
2019-03-03T14:47:19.813Z,5.10
2019-03-03T14:53:22.568Z,4.07
2019-03-03T14:56:07.421Z,10.27
2019-03-03T14:58:52.613Z,7.47
2019-03-03T15:01:38.305Z,5.97
2019-03-03T15:04:10.897Z,5.37
2019-03-03T15:06:56.102Z,6.33
2019-03-03T15:09:41.294Z,6.70
2019-03-03T15:12:26.181Z,5.17
2019-03-03T15:14:59.174Z,5.27
2019-03-03T15:17:31.674Z,6.20
2019-03-03T15:20:24.033Z,5.93
2019-03-03T15:23:09.053Z,14.73
2019-03-03T15:25:54.018Z,8.60
2019-03-03T15:28:38.892Z,7.77
2019-03-03T15:31:24.232Z,7.17
2019-03-03T15:34:09.861Z,6.87
2019-03-03T15:36:55.034Z,6.53
2019-03-03T15:39:40.171Z,7.20
2019-03-03T15:42:12.658Z,6.80
2019-03-03T15:45:05.038Z,8.23
2019-03-03T15:47:50.647Z,7.43
2019-03-03T15:50:35.516Z,7.40
2019-03-03T15:53:20.743Z,7.57
2019-03-03T15:56:05.685Z,7.30
2019-03-03T15:58:55.565Z,7.00
2019-03-03T16:01:37.898Z,7.20
2019-03-03T16:04:23.735Z,7.93
2019-03-03T16:07:08.479Z,6.73
2019-03-03T16:09:40.716Z,7.30
2019-03-03T16:12:25.417Z,7.67
2019-03-03T16:15:10.625Z,7.20
2019-03-03T16:17:56.171Z,7.67
2019-03-03T16:20:40.770Z,7.13
2019-03-03T16:23:25.563Z,7.93
2019-03-03T16:26:10.562Z,10.37
2019-03-03T16:28:55.757Z,9.00
2019-03-03T16:31:40.567Z,8.60
2019-03-03T16:34:26.061Z,8.20
2019-03-03T16:37:10.985Z,9.27
2019-03-03T16:39:56.524Z,8.20
2019-03-03T16:42:28.629Z,8.10
2019-03-03T16:45:13.179Z,7.30
2019-03-03T16:47:58.318Z,9.43
2019-03-03T16:50:43.286Z,11.43
2019-03-03T16:53:15.600Z,8.07
2019-03-03T16:55:47.935Z,12.93
2019-03-03T16:58:20.315Z,7.80
2019-03-03T17:01:05.047Z,7.70
2019-03-03T17:03:49.987Z,9.03
2019-03-03T17:06:35.078Z,12.87
2019-03-03T17:09:20.301Z,8.03
2019-03-03T17:12:05.579Z,7.83
2019-03-03T17:14:50.247Z,7.30
2019-03-03T17:17:35.382Z,7.93
2019-03-03T17:20:08.206Z,7.23
2019-03-03T17:23:00.314Z,8.27
2019-03-03T17:25:32.673Z,9.07
2019-03-03T17:28:24.561Z,8.00
2019-03-03T17:30:57.100Z,6.33
2019-03-03T17:33:42.164Z,7.43
2019-03-03T17:36:27.233Z,10.27
2019-03-03T17:39:12.393Z,10.20
2019-03-03T17:41:44.887Z,8.10
2019-03-03T17:44:17.237Z,10.63
2019-03-03T17:47:02.913Z,5.50
2019-03-03T17:49:47.780Z,7.13
2019-03-03T17:52:20.093Z,8.40
2019-03-03T17:54:52.558Z,6.53
2019-03-03T17:57:25.329Z,8.23
2019-03-03T18:00:18.274Z,8.53
2019-03-03T18:03:03.737Z,7.37
2019-03-03T18:05:49.741Z,6.47
2019-03-03T18:08:34.621Z,6.90
2019-03-03T18:11:19.385Z,13.50
2019-03-03T18:14:04.632Z,8.33
2019-03-03T18:16:49.707Z,8.60
2019-03-03T18:19:34.829Z,6.70
2019-03-03T18:22:19.849Z,9.87
2019-03-03T18:25:05.146Z,6.60
2019-03-03T18:27:50.544Z,7.27
2019-03-03T18:30:36.185Z,7.37
2019-03-03T18:33:21.002Z,6.17
2019-03-03T18:35:53.258Z,5.77
2019-03-03T18:38:38.797Z,6.33
2019-03-03T18:41:23.465Z,6.90
2019-03-03T18:43:55.837Z,5.90
2019-03-03T18:46:47.845Z,6.50
2019-03-03T18:49:32.781Z,6.17
2019-03-03T18:52:18.058Z,5.97
2019-03-03T18:55:02.995Z,5.87
2019-03-03T18:57:35.957Z,6.57
2019-03-03T19:00:28.145Z,5.77
2019-03-03T19:03:13.362Z,5.80
2019-03-03T19:05:58.247Z,6.37
2019-03-03T19:08:43.367Z,5.97
2019-03-03T19:11:28.755Z,5.70
2019-03-03T19:14:13.438Z,5.40
2019-03-03T19:16:58.689Z,7.23
2019-03-03T19:19:44.816Z,6.33
2019-03-03T19:22:29.934Z,5.80
2019-03-03T19:25:15.176Z,6.03
2019-03-03T19:28:00.311Z,6.83
2019-03-03T19:30:45.306Z,7.07
2019-03-03T19:33:56.733Z,5.60
2019-03-03T19:36:41.337Z,6.30
2019-03-03T19:39:13.756Z,5.87
2019-03-03T19:42:05.591Z,6.70
2019-03-03T19:44:50.458Z,6.67
2019-03-03T19:47:35.310Z,5.43
2019-03-03T19:50:09.248Z,5.33
2019-03-03T19:52:42.136Z,6.00
2019-03-03T19:55:34.106Z,5.83
2019-03-03T19:58:26.007Z,6.50
2019-03-03T20:01:11.064Z,5.70
2019-03-03T20:03:56.017Z,8.03
2019-03-03T20:06:41.087Z,9.60
2019-03-03T20:09:26.334Z,7.30
2019-03-03T20:12:11.311Z,8.23
2019-03-03T20:14:56.082Z,7.30
2019-03-03T20:17:28.348Z,7.70
2019-03-03T20:20:20.158Z,5.63
2019-03-03T20:25:44.807Z,4.87
2019-03-03T20:28:29.722Z,4.90
2019-03-03T20:33:58.813Z,6.10
2019-03-03T20:36:43.910Z,5.67
2019-03-03T20:39:16.824Z,6.00
2019-03-03T20:42:02.088Z,5.27
2019-03-03T20:44:45.083Z,5.00
2019-03-03T20:47:30.997Z,5.63
2019-03-03T20:50:16.479Z,4.83
2019-03-03T20:56:15.541Z,6.93
2019-03-03T20:58:47.955Z,5.20
2019-03-03T21:01:40.030Z,5.93
2019-03-03T21:04:24.547Z,4.67
2019-03-03T21:07:09.909Z,4.93
2019-03-03T21:09:54.878Z,4.57
2019-03-03T21:12:39.747Z,4.60
2019-03-03T21:15:24.786Z,5.00
2019-03-03T21:18:09.933Z,5.80
2019-03-03T21:20:55.078Z,5.47
2019-03-03T21:23:40.074Z,4.70
2019-03-03T21:26:25.207Z,4.73
2019-03-03T21:29:10.343Z,4.90
2019-03-03T21:31:55.866Z,4.37
2019-03-03T21:34:40.655Z,4.70
2019-03-03T21:37:25.627Z,5.07
2019-03-03T21:40:10.774Z,4.37
2019-03-03T21:42:56.001Z,4.17
2019-03-03T21:45:40.710Z,4.53
2019-03-03T21:48:25.804Z,4.20
2019-03-03T21:50:58.086Z,4.40
2019-03-03T21:53:42.988Z,4.93
2019-03-03T21:56:28.093Z,4.70
2019-03-03T21:59:13.182Z,4.47
2019-03-03T22:01:45.448Z,4.50
2019-03-03T22:04:37.255Z,4.73
2019-03-03T22:07:09.391Z,5.23
2019-03-03T22:10:01.377Z,4.50
2019-03-03T22:12:45.778Z,4.77
2019-03-03T22:15:30.350Z,4.87
2019-03-03T22:18:03.092Z,4.87
2019-03-03T22:20:48.418Z,4.37
2019-03-03T22:23:20.570Z,4.80
2019-03-03T22:25:52.976Z,4.87
2019-03-03T22:28:25.142Z,4.53
2019-03-03T22:31:16.922Z,4.90
2019-03-03T22:34:02.196Z,4.30
2019-03-03T22:36:47.049Z,4.70
2019-03-03T22:39:32.233Z,4.57
2019-03-03T22:42:17.453Z,4.50
2019-03-03T22:44:50.013Z,5.27
2019-03-03T22:47:22.314Z,4.30
2019-03-03T22:50:07.119Z,4.47
2019-03-03T22:52:41.918Z,4.20
2019-03-03T22:55:26.555Z,4.83
2019-03-03T22:57:58.701Z,4.57
2019-03-03T23:00:53.033Z,4.63
2019-03-03T23:03:50.407Z,4.60
2019-03-03T23:06:27.105Z,4.73
2019-03-03T23:09:12.432Z,4.73
2019-03-03T23:11:57.401Z,4.63
2019-03-03T23:14:42.445Z,4.03
2019-03-03T23:17:27.846Z,4.50
2019-03-03T23:20:13.024Z,3.73
2019-03-03T23:22:57.910Z,4.67
2019-03-03T23:25:42.741Z,4.50
2019-03-03T23:28:27.850Z,8.33
2019-03-03T23:31:12.964Z,11.40
2019-03-03T23:33:58.036Z,7.23
2019-03-03T23:36:43.569Z,5.43
2019-03-03T23:39:29.329Z,7.37
2019-03-03T23:42:14.117Z,7.57
2019-03-03T23:44:46.378Z,9.07
2019-03-03T23:47:38.335Z,5.57
2019-03-03T23:50:23.086Z,5.10
2019-03-03T23:52:55.683Z,5.17
2019-03-03T23:55:41.035Z,4.23
2019-03-03T23:58:13.392Z,4.40
